sensor_id;sensor_type;location;lat;lon;timestamp;P1;durP1;ratioP1;P2;durP2;ratioP2
70806;SDS011;58882;52.170;5.386;2022-10-16T00:00:39;5.38;;;1.70;;
70806;SDS011;58882;52.170;5.386;2022-10-16T00:03:07;4.45;;;1.42;;
70806;SDS011;58882;52.170;5.386;2022-10-16T00:05:41;5.47;;;1.58;;
70806;SDS011;58882;52.170;5.386;2022-10-16T00:10:37;4.60;;;1.40;;
70806;SDS011;58882;52.170;5.386;2022-10-16T00:13:04;7.93;;;1.70;;
70806;SDS011;58882;52.170;5.386;2022-10-16T00:15:35;8.52;;;1.80;;
70806;SDS011;58882;52.170;5.386;2022-10-16T00:18:03;8.23;;;2.08;;
70806;SDS011;58882;52.170;5.386;2022-10-16T00:20:33;6.03;;;1.92;;
70806;SDS011;58882;52.170;5.386;2022-10-16T00:23:00;4.93;;;1.63;;
70806;SDS011;58882;52.170;5.386;2022-10-16T00:25:27;5.13;;;1.83;;
70806;SDS011;58882;52.170;5.386;2022-10-16T00:27:54;6.43;;;1.65;;
70806;SDS011;58882;52.170;5.386;2022-10-16T00:30:21;7.50;;;1.85;;
70806;SDS011;58882;52.170;5.386;2022-10-16T00:32:47;7.28;;;1.63;;
70806;SDS011;58882;52.170;5.386;2022-10-16T00:35:14;5.35;;;1.60;;
70806;SDS011;58882;52.170;5.386;2022-10-16T00:37:41;5.95;;;1.70;;
70806;SDS011;58882;52.170;5.386;2022-10-16T00:40:08;6.68;;;1.90;;
70806;SDS011;58882;52.170;5.386;2022-10-16T00:42:35;6.13;;;2.00;;
70806;SDS011;58882;52.170;5.386;2022-10-16T00:45:02;4.40;;;1.70;;
70806;SDS011;58882;52.170;5.386;2022-10-16T00:47:34;6.75;;;1.80;;
70806;SDS011;58882;52.170;5.386;2022-10-16T00:50:22;4.82;;;1.77;;
70806;SDS011;58882;52.170;5.386;2022-10-16T00:53:00;4.22;;;1.65;;
70806;SDS011;58882;52.170;5.386;2022-10-16T00:55:29;6.15;;;1.80;;
70806;SDS011;58882;52.170;5.386;2022-10-16T00:57:56;5.32;;;1.80;;
70806;SDS011;58882;52.170;5.386;2022-10-16T01:00:26;5.75;;;1.90;;
70806;SDS011;58882;52.170;5.386;2022-10-16T01:02:54;7.88;;;1.90;;
70806;SDS011;58882;52.170;5.386;2022-10-16T01:05:23;5.88;;;2.00;;
70806;SDS011;58882;52.170;5.386;2022-10-16T01:08:54;5.93;;;1.92;;
70806;SDS011;58882;52.170;5.386;2022-10-16T01:11:30;7.07;;;2.28;;
70806;SDS011;58882;52.170;5.386;2022-10-16T01:14:06;6.22;;;1.90;;
70806;SDS011;58882;52.170;5.386;2022-10-16T01:16:58;5.38;;;1.90;;
70806;SDS011;58882;52.170;5.386;2022-10-16T01:22:21;5.65;;;2.38;;
70806;SDS011;58882;52.170;5.386;2022-10-16T01:24:57;9.40;;;2.17;;
70806;SDS011;58882;52.170;5.386;2022-10-16T01:27:30;8.13;;;2.35;;
70806;SDS011;58882;52.170;5.386;2022-10-16T01:30:10;7.18;;;2.35;;
70806;SDS011;58882;52.170;5.386;2022-10-16T01:32:46;8.95;;;2.53;;
70806;SDS011;58882;52.170;5.386;2022-10-16T01:35:21;9.75;;;2.80;;
70806;SDS011;58882;52.170;5.386;2022-10-16T01:40:39;7.15;;;2.78;;
70806;SDS011;58882;52.170;5.386;2022-10-16T01:43:15;11.85;;;2.80;;
70806;SDS011;58882;52.170;5.386;2022-10-16T01:45:49;8.30;;;2.67;;
70806;SDS011;58882;52.170;5.386;2022-10-16T01:48:17;8.45;;;2.38;;
70806;SDS011;58882;52.170;5.386;2022-10-16T01:50:49;7.28;;;2.63;;
70806;SDS011;58882;52.170;5.386;2022-10-16T01:53:27;6.65;;;2.78;;
70806;SDS011;58882;52.170;5.386;2022-10-16T01:55:54;8.98;;;2.58;;
70806;SDS011;58882;52.170;5.386;2022-10-16T01:58:23;6.07;;;2.58;;
70806;SDS011;58882;52.170;5.386;2022-10-16T02:00:51;6.82;;;2.70;;
70806;SDS011;58882;52.170;5.386;2022-10-16T02:03:22;6.75;;;2.63;;
70806;SDS011;58882;52.170;5.386;2022-10-16T02:05:53;9.80;;;2.80;;
70806;SDS011;58882;52.170;5.386;2022-10-16T02:08:23;7.80;;;2.92;;
70806;SDS011;58882;52.170;5.386;2022-10-16T02:10:52;7.07;;;2.83;;
70806;SDS011;58882;52.170;5.386;2022-10-16T02:13:22;9.32;;;3.03;;
70806;SDS011;58882;52.170;5.386;2022-10-16T02:15:54;5.75;;;2.50;;
70806;SDS011;58882;52.170;5.386;2022-10-16T02:18:21;6.75;;;2.80;;
70806;SDS011;58882;52.170;5.386;2022-10-16T02:20:50;9.25;;;2.90;;
70806;SDS011;58882;52.170;5.386;2022-10-16T02:23:29;6.28;;;2.80;;
70806;SDS011;58882;52.170;5.386;2022-10-16T02:26:15;8.65;;;2.55;;
70806;SDS011;58882;52.170;5.386;2022-10-16T02:28:48;7.32;;;2.50;;
70806;SDS011;58882;52.170;5.386;2022-10-16T02:31:25;6.28;;;2.45;;
70806;SDS011;58882;52.170;5.386;2022-10-16T02:33:56;7.20;;;2.55;;
70806;SDS011;58882;52.170;5.386;2022-10-16T02:36:26;7.78;;;2.47;;
70806;SDS011;58882;52.170;5.386;2022-10-16T02:38:53;5.22;;;2.17;;
70806;SDS011;58882;52.170;5.386;2022-10-16T02:41:21;4.63;;;2.10;;
70806;SDS011;58882;52.170;5.386;2022-10-16T02:43:49;7.50;;;2.50;;
70806;SDS011;58882;52.170;5.386;2022-10-16T02:46:16;5.38;;;2.13;;
70806;SDS011;58882;52.170;5.386;2022-10-16T02:48:44;7.80;;;2.10;;
70806;SDS011;58882;52.170;5.386;2022-10-16T02:51:11;7.50;;;2.15;;
70806;SDS011;58882;52.170;5.386;2022-10-16T02:53:37;6.88;;;2.08;;
70806;SDS011;58882;52.170;5.386;2022-10-16T02:56:04;8.82;;;2.38;;
70806;SDS011;58882;52.170;5.386;2022-10-16T02:58:31;7.15;;;2.20;;
70806;SDS011;58882;52.170;5.386;2022-10-16T03:00:59;5.13;;;2.10;;
70806;SDS011;58882;52.170;5.386;2022-10-16T03:03:25;6.63;;;1.98;;
70806;SDS011;58882;52.170;5.386;2022-10-16T03:05:52;5.47;;;1.80;;
70806;SDS011;58882;52.170;5.386;2022-10-16T03:08:19;6.55;;;2.10;;
70806;SDS011;58882;52.170;5.386;2022-10-16T03:10:50;5.45;;;1.90;;
70806;SDS011;58882;52.170;5.386;2022-10-16T03:13:17;7.93;;;2.58;;
70806;SDS011;58882;52.170;5.386;2022-10-16T03:15:46;5.35;;;1.95;;
70806;SDS011;58882;52.170;5.386;2022-10-16T03:18:13;7.43;;;2.03;;
70806;SDS011;58882;52.170;5.386;2022-10-16T03:20:42;4.63;;;1.85;;
70806;SDS011;58882;52.170;5.386;2022-10-16T03:25:36;4.05;;;1.92;;
70806;SDS011;58882;52.170;5.386;2022-10-16T03:28:03;4.65;;;1.65;;
70806;SDS011;58882;52.170;5.386;2022-10-16T03:30:30;4.07;;;1.80;;
70806;SDS011;58882;52.170;5.386;2022-10-16T03:32:57;5.53;;;2.00;;
70806;SDS011;58882;52.170;5.386;2022-10-16T03:35:24;3.13;;;1.60;;
70806;SDS011;58882;52.170;5.386;2022-10-16T03:37:51;4.30;;;1.77;;
70806;SDS011;58882;52.170;5.386;2022-10-16T03:40:19;4.35;;;1.90;;
70806;SDS011;58882;52.170;5.386;2022-10-16T03:42:46;4.75;;;1.80;;
70806;SDS011;58882;52.170;5.386;2022-10-16T03:45:12;4.60;;;1.75;;
70806;SDS011;58882;52.170;5.386;2022-10-16T03:47:39;3.13;;;1.60;;
70806;SDS011;58882;52.170;5.386;2022-10-16T03:50:06;4.35;;;1.77;;
70806;SDS011;58882;52.170;5.386;2022-10-16T03:52:33;3.97;;;1.63;;
70806;SDS011;58882;52.170;5.386;2022-10-16T03:55:00;6.93;;;1.90;;
70806;SDS011;58882;52.170;5.386;2022-10-16T03:57:27;5.07;;;1.60;;
70806;SDS011;58882;52.170;5.386;2022-10-16T03:59:54;7.15;;;2.00;;
70806;SDS011;58882;52.170;5.386;2022-10-16T04:02:21;2.83;;;1.42;;
70806;SDS011;58882;52.170;5.386;2022-10-16T04:04:48;3.47;;;1.63;;
70806;SDS011;58882;52.170;5.386;2022-10-16T04:07:14;4.22;;;1.55;;
70806;SDS011;58882;52.170;5.386;2022-10-16T04:09:41;3.35;;;1.70;;
70806;SDS011;58882;52.170;5.386;2022-10-16T04:12:08;3.70;;;1.40;;
70806;SDS011;58882;52.170;5.386;2022-10-16T04:14:35;4.72;;;1.60;;
70806;SDS011;58882;52.170;5.386;2022-10-16T04:17:01;3.80;;;1.42;;
70806;SDS011;58882;52.170;5.386;2022-10-16T04:19:28;2.55;;;1.45;;
70806;SDS011;58882;52.170;5.386;2022-10-16T04:21:55;4.45;;;1.70;;
70806;SDS011;58882;52.170;5.386;2022-10-16T04:24:22;3.47;;;1.50;;
70806;SDS011;58882;52.170;5.386;2022-10-16T04:26:48;6.90;;;1.60;;
70806;SDS011;58882;52.170;5.386;2022-10-16T04:29:15;5.50;;;1.50;;
70806;SDS011;58882;52.170;5.386;2022-10-16T04:31:42;2.53;;;1.38;;
70806;SDS011;58882;52.170;5.386;2022-10-16T04:34:09;4.95;;;1.42;;
70806;SDS011;58882;52.170;5.386;2022-10-16T04:36:35;2.03;;;1.25;;
70806;SDS011;58882;52.170;5.386;2022-10-16T04:39:02;3.58;;;1.52;;
70806;SDS011;58882;52.170;5.386;2022-10-16T04:41:29;6.45;;;1.90;;
70806;SDS011;58882;52.170;5.386;2022-10-16T04:43:56;4.15;;;1.30;;
70806;SDS011;58882;52.170;5.386;2022-10-16T04:46:22;2.72;;;1.50;;
70806;SDS011;58882;52.170;5.386;2022-10-16T04:48:49;4.75;;;1.60;;
70806;SDS011;58882;52.170;5.386;2022-10-16T04:51:16;3.70;;;1.42;;
70806;SDS011;58882;52.170;5.386;2022-10-16T04:53:44;5.78;;;1.50;;
70806;SDS011;58882;52.170;5.386;2022-10-16T04:56:11;3.75;;;1.45;;
70806;SDS011;58882;52.170;5.386;2022-10-16T04:58:38;4.55;;;1.50;;
70806;SDS011;58882;52.170;5.386;2022-10-16T05:01:05;3.72;;;1.42;;
70806;SDS011;58882;52.170;5.386;2022-10-16T05:03:32;4.50;;;1.60;;
70806;SDS011;58882;52.170;5.386;2022-10-16T05:05:58;5.75;;;1.40;;
70806;SDS011;58882;52.170;5.386;2022-10-16T05:08:25;2.63;;;1.30;;
70806;SDS011;58882;52.170;5.386;2022-10-16T05:10:52;5.18;;;1.50;;
70806;SDS011;58882;52.170;5.386;2022-10-16T05:13:19;3.30;;;1.45;;
70806;SDS011;58882;52.170;5.386;2022-10-16T05:15:47;7.72;;;1.40;;
70806;SDS011;58882;52.170;5.386;2022-10-16T05:18:14;3.13;;;1.30;;
70806;SDS011;58882;52.170;5.386;2022-10-16T05:20:41;3.20;;;1.30;;
70806;SDS011;58882;52.170;5.386;2022-10-16T05:23:09;4.95;;;1.45;;
70806;SDS011;58882;52.170;5.386;2022-10-16T05:25:51;4.15;;;1.40;;
70806;SDS011;58882;52.170;5.386;2022-10-16T05:28:20;3.97;;;1.50;;
70806;SDS011;58882;52.170;5.386;2022-10-16T05:30:46;3.85;;;1.42;;
70806;SDS011;58882;52.170;5.386;2022-10-16T05:33:13;4.15;;;1.40;;
70806;SDS011;58882;52.170;5.386;2022-10-16T05:35:40;4.95;;;1.58;;
70806;SDS011;58882;52.170;5.386;2022-10-16T05:38:07;5.18;;;1.70;;
70806;SDS011;58882;52.170;5.386;2022-10-16T05:40:34;4.78;;;1.50;;
70806;SDS011;58882;52.170;5.386;2022-10-16T05:43:01;6.22;;;1.63;;
70806;SDS011;58882;52.170;5.386;2022-10-16T05:45:28;4.40;;;1.40;;
70806;SDS011;58882;52.170;5.386;2022-10-16T05:47:54;5.53;;;1.45;;
70806;SDS011;58882;52.170;5.386;2022-10-16T05:50:21;2.42;;;1.40;;
70806;SDS011;58882;52.170;5.386;2022-10-16T05:52:48;5.45;;;1.63;;
70806;SDS011;58882;52.170;5.386;2022-10-16T05:55:15;3.40;;;1.48;;
70806;SDS011;58882;52.170;5.386;2022-10-16T05:57:41;4.15;;;1.50;;
70806;SDS011;58882;52.170;5.386;2022-10-16T06:00:08;3.85;;;1.83;;
70806;SDS011;58882;52.170;5.386;2022-10-16T06:02:39;3.55;;;1.50;;
70806;SDS011;58882;52.170;5.386;2022-10-16T06:05:05;5.07;;;1.50;;
70806;SDS011;58882;52.170;5.386;2022-10-16T06:07:35;6.43;;;1.80;;
70806;SDS011;58882;52.170;5.386;2022-10-16T06:10:03;13.05;;;1.80;;
70806;SDS011;58882;52.170;5.386;2022-10-16T06:12:30;6.28;;;1.92;;
70806;SDS011;58882;52.170;5.386;2022-10-16T06:14:57;5.22;;;1.65;;
70806;SDS011;58882;52.170;5.386;2022-10-16T06:17:24;5.13;;;1.67;;
70806;SDS011;58882;52.170;5.386;2022-10-16T06:19:51;3.30;;;1.42;;
70806;SDS011;58882;52.170;5.386;2022-10-16T06:22:18;3.72;;;1.65;;
70806;SDS011;58882;52.170;5.386;2022-10-16T06:24:45;5.53;;;1.50;;
70806;SDS011;58882;52.170;5.386;2022-10-16T06:27:12;6.03;;;1.50;;
70806;SDS011;58882;52.170;5.386;2022-10-16T06:29:39;4.28;;;1.75;;
70806;SDS011;58882;52.170;5.386;2022-10-16T06:32:06;3.42;;;1.60;;
70806;SDS011;58882;52.170;5.386;2022-10-16T06:34:33;9.18;;;1.90;;
70806;SDS011;58882;52.170;5.386;2022-10-16T06:37:00;4.88;;;1.65;;
70806;SDS011;58882;52.170;5.386;2022-10-16T06:39:27;6.43;;;1.80;;
70806;SDS011;58882;52.170;5.386;2022-10-16T06:41:54;4.97;;;1.80;;
70806;SDS011;58882;52.170;5.386;2022-10-16T06:44:25;7.50;;;2.28;;
70806;SDS011;58882;52.170;5.386;2022-10-16T06:46:51;4.28;;;1.52;;
70806;SDS011;58882;52.170;5.386;2022-10-16T06:49:18;4.57;;;1.90;;
70806;SDS011;58882;52.170;5.386;2022-10-16T06:51:48;7.15;;;1.77;;
70806;SDS011;58882;52.170;5.386;2022-10-16T06:54:15;4.50;;;2.00;;
70806;SDS011;58882;52.170;5.386;2022-10-16T06:56:43;3.83;;;1.80;;
70806;SDS011;58882;52.170;5.386;2022-10-16T06:59:10;6.40;;;1.63;;
70806;SDS011;58882;52.170;5.386;2022-10-16T07:01:37;5.57;;;1.70;;
70806;SDS011;58882;52.170;5.386;2022-10-16T07:04:04;4.45;;;1.58;;
70806;SDS011;58882;52.170;5.386;2022-10-16T07:06:32;3.50;;;1.50;;
70806;SDS011;58882;52.170;5.386;2022-10-16T07:09:01;5.93;;;1.70;;
70806;SDS011;58882;52.170;5.386;2022-10-16T07:11:29;4.45;;;1.60;;
70806;SDS011;58882;52.170;5.386;2022-10-16T07:13:56;4.88;;;1.50;;
70806;SDS011;58882;52.170;5.386;2022-10-16T07:16:25;5.93;;;1.58;;
70806;SDS011;58882;52.170;5.386;2022-10-16T07:18:54;5.30;;;1.60;;
70806;SDS011;58882;52.170;5.386;2022-10-16T07:21:27;4.82;;;1.50;;
70806;SDS011;58882;52.170;5.386;2022-10-16T07:23:56;5.57;;;1.52;;
70806;SDS011;58882;52.170;5.386;2022-10-16T07:26:25;4.78;;;1.90;;
70806;SDS011;58882;52.170;5.386;2022-10-16T07:28:54;4.85;;;1.38;;
70806;SDS011;58882;52.170;5.386;2022-10-16T07:31:21;5.72;;;1.60;;
70806;SDS011;58882;52.170;5.386;2022-10-16T07:33:49;4.82;;;1.27;;
70806;SDS011;58882;52.170;5.386;2022-10-16T07:36:17;5.47;;;1.40;;
70806;SDS011;58882;52.170;5.386;2022-10-16T07:38:46;3.03;;;1.25;;
70806;SDS011;58882;52.170;5.386;2022-10-16T07:41:15;8.30;;;1.50;;
70806;SDS011;58882;52.170;5.386;2022-10-16T07:43:47;4.80;;;1.33;;
70806;SDS011;58882;52.170;5.386;2022-10-16T07:46:15;3.80;;;1.10;;
70806;SDS011;58882;52.170;5.386;2022-10-16T07:48:43;5.72;;;1.30;;
70806;SDS011;58882;52.170;5.386;2022-10-16T07:51:14;4.78;;;1.38;;
70806;SDS011;58882;52.170;5.386;2022-10-16T07:53:43;4.47;;;1.35;;
70806;SDS011;58882;52.170;5.386;2022-10-16T07:56:10;2.88;;;1.05;;
70806;SDS011;58882;52.170;5.386;2022-10-16T07:58:37;6.15;;;1.50;;
70806;SDS011;58882;52.170;5.386;2022-10-16T08:01:06;3.05;;;1.45;;
70806;SDS011;58882;52.170;5.386;2022-10-16T08:03:34;4.57;;;1.45;;
70806;SDS011;58882;52.170;5.386;2022-10-16T08:06:02;4.03;;;1.20;;
70806;SDS011;58882;52.170;5.386;2022-10-16T08:08:29;7.53;;;1.40;;
70806;SDS011;58882;52.170;5.386;2022-10-16T08:10:56;5.15;;;1.40;;
70806;SDS011;58882;52.170;5.386;2022-10-16T08:13:23;8.98;;;1.75;;
70806;SDS011;58882;52.170;5.386;2022-10-16T08:15:50;5.00;;;1.60;;
70806;SDS011;58882;52.170;5.386;2022-10-16T08:18:16;4.60;;;1.55;;
70806;SDS011;58882;52.170;5.386;2022-10-16T08:20:43;3.05;;;1.45;;
70806;SDS011;58882;52.170;5.386;2022-10-16T08:23:10;4.32;;;1.50;;
70806;SDS011;58882;52.170;5.386;2022-10-16T08:25:39;5.43;;;1.40;;
70806;SDS011;58882;52.170;5.386;2022-10-16T08:28:07;4.55;;;1.27;;
70806;SDS011;58882;52.170;5.386;2022-10-16T08:30:35;11.85;;;1.45;;
70806;SDS011;58882;52.170;5.386;2022-10-16T08:33:03;5.43;;;1.20;;
70806;SDS011;58882;52.170;5.386;2022-10-16T08:35:30;4.10;;;1.23;;
70806;SDS011;58882;52.170;5.386;2022-10-16T08:37:57;7.03;;;1.58;;
70806;SDS011;58882;52.170;5.386;2022-10-16T08:40:25;7.50;;;1.38;;
70806;SDS011;58882;52.170;5.386;2022-10-16T08:48:51;3.60;;;1.20;;
70806;SDS011;58882;52.170;5.386;2022-10-16T08:51:21;2.88;;;1.13;;
70806;SDS011;58882;52.170;5.386;2022-10-16T08:54:01;5.93;;;1.30;;
70806;SDS011;58882;52.170;5.386;2022-10-16T08:56:31;3.35;;;1.20;;
70806;SDS011;58882;52.170;5.386;2022-10-16T08:58:59;6.00;;;1.40;;
70806;SDS011;58882;52.170;5.386;2022-10-16T09:01:38;6.07;;;1.35;;
70806;SDS011;58882;52.170;5.386;2022-10-16T09:07:12;4.40;;;1.30;;
70806;SDS011;58882;52.170;5.386;2022-10-16T09:09:57;5.18;;;1.30;;
70806;SDS011;58882;52.170;5.386;2022-10-16T09:15:39;6.93;;;1.20;;
70806;SDS011;58882;52.170;5.386;2022-10-16T09:19:01;8.38;;;1.33;;
70806;SDS011;58882;52.170;5.386;2022-10-16T09:21:39;5.78;;;1.38;;
70806;SDS011;58882;52.170;5.386;2022-10-16T09:24:15;5.22;;;1.30;;
70806;SDS011;58882;52.170;5.386;2022-10-16T09:26:45;7.93;;;1.83;;
70806;SDS011;58882;52.170;5.386;2022-10-16T09:29:17;5.10;;;1.38;;
70806;SDS011;58882;52.170;5.386;2022-10-16T09:31:49;6.30;;;1.55;;
70806;SDS011;58882;52.170;5.386;2022-10-16T09:34:28;5.35;;;1.70;;
70806;SDS011;58882;52.170;5.386;2022-10-16T09:37:03;5.70;;;1.35;;
70806;SDS011;58882;52.170;5.386;2022-10-16T09:39:44;5.63;;;1.25;;
70806;SDS011;58882;52.170;5.386;2022-10-16T09:42:19;7.57;;;1.27;;
70806;SDS011;58882;52.170;5.386;2022-10-16T09:44:53;4.35;;;1.10;;
70806;SDS011;58882;52.170;5.386;2022-10-16T09:47:23;6.70;;;1.42;;
70806;SDS011;58882;52.170;5.386;2022-10-16T09:50:13;6.57;;;1.38;;
70806;SDS011;58882;52.170;5.386;2022-10-16T09:52:47;6.50;;;1.30;;
70806;SDS011;58882;52.170;5.386;2022-10-16T09:55:15;8.43;;;1.65;;
70806;SDS011;58882;52.170;5.386;2022-10-16T09:57:51;8.95;;;1.55;;
70806;SDS011;58882;52.170;5.386;2022-10-16T10:00:22;8.00;;;1.48;;
70806;SDS011;58882;52.170;5.386;2022-10-16T10:02:51;4.15;;;1.08;;
70806;SDS011;58882;52.170;5.386;2022-10-16T10:05:22;6.72;;;1.48;;
70806;SDS011;58882;52.170;5.386;2022-10-16T10:10:27;6.13;;;1.42;;
70806;SDS011;58882;52.170;5.386;2022-10-16T10:12:58;6.65;;;1.42;;
70806;SDS011;58882;52.170;5.386;2022-10-16T10:15:25;5.53;;;1.38;;
70806;SDS011;58882;52.170;5.386;2022-10-16T10:17:56;8.05;;;1.35;;
70806;SDS011;58882;52.170;5.386;2022-10-16T10:20:30;5.80;;;1.30;;
70806;SDS011;58882;52.170;5.386;2022-10-16T10:23:24;5.93;;;1.40;;
70806;SDS011;58882;52.170;5.386;2022-10-16T10:25:54;9.95;;;1.50;;
70806;SDS011;58882;52.170;5.386;2022-10-16T10:31:20;6.75;;;1.67;;
70806;SDS011;58882;52.170;5.386;2022-10-16T10:39:41;8.57;;;1.70;;
70806;SDS011;58882;52.170;5.386;2022-10-16T10:42:22;4.57;;;1.05;;
70806;SDS011;58882;52.170;5.386;2022-10-16T10:48:11;7.03;;;1.23;;
70806;SDS011;58882;52.170;5.386;2022-10-16T10:51:01;7.32;;;1.58;;
70806;SDS011;58882;52.170;5.386;2022-10-16T11:01:50;6.47;;;1.23;;
70806;SDS011;58882;52.170;5.386;2022-10-16T11:04:32;7.80;;;1.60;;
70806;SDS011;58882;52.170;5.386;2022-10-16T11:07:02;5.95;;;1.30;;
70806;SDS011;58882;52.170;5.386;2022-10-16T11:12:18;6.38;;;1.30;;
70806;SDS011;58882;52.170;5.386;2022-10-16T11:17:52;6.53;;;1.48;;
70806;SDS011;58882;52.170;5.386;2022-10-16T11:20:28;7.72;;;1.70;;
70806;SDS011;58882;52.170;5.386;2022-10-16T11:25:42;7.63;;;1.40;;
70806;SDS011;58882;52.170;5.386;2022-10-16T11:28:12;7.25;;;1.52;;
70806;SDS011;58882;52.170;5.386;2022-10-16T11:36:06;7.25;;;1.50;;
70806;SDS011;58882;52.170;5.386;2022-10-16T11:38:55;7.28;;;1.20;;
70806;SDS011;58882;52.170;5.386;2022-10-16T11:51:14;6.10;;;1.52;;
70806;SDS011;58882;52.170;5.386;2022-10-16T11:56:11;5.88;;;1.30;;
70806;SDS011;58882;52.170;5.386;2022-10-16T11:58:43;7.35;;;1.33;;
70806;SDS011;58882;52.170;5.386;2022-10-16T12:01:31;8.10;;;1.90;;
70806;SDS011;58882;52.170;5.386;2022-10-16T12:06:59;8.60;;;1.48;;
70806;SDS011;58882;52.170;5.386;2022-10-16T12:09:29;11.85;;;1.38;;
70806;SDS011;58882;52.170;5.386;2022-10-16T12:11:58;7.10;;;1.30;;
70806;SDS011;58882;52.170;5.386;2022-10-16T12:17:36;7.30;;;1.50;;
70806;SDS011;58882;52.170;5.386;2022-10-16T12:22:49;9.40;;;1.60;;
70806;SDS011;58882;52.170;5.386;2022-10-16T12:25:28;7.32;;;1.40;;
70806;SDS011;58882;52.170;5.386;2022-10-16T12:28:04;10.55;;;1.50;;
70806;SDS011;58882;52.170;5.386;2022-10-16T12:30:34;5.40;;;1.33;;
70806;SDS011;58882;52.170;5.386;2022-10-16T12:33:03;6.22;;;1.30;;
70806;SDS011;58882;52.170;5.386;2022-10-16T12:35:48;5.95;;;1.13;;
70806;SDS011;58882;52.170;5.386;2022-10-16T12:40:43;6.10;;;1.40;;
70806;SDS011;58882;52.170;5.386;2022-10-16T12:43:58;4.88;;;1.27;;
70806;SDS011;58882;52.170;5.386;2022-10-16T12:48:37;8.18;;;1.40;;
70806;SDS011;58882;52.170;5.386;2022-10-16T12:51:33;6.93;;;1.10;;
70806;SDS011;58882;52.170;5.386;2022-10-16T12:54:11;6.68;;;1.40;;
70806;SDS011;58882;52.170;5.386;2022-10-16T13:10:40;5.85;;;1.00;;
70806;SDS011;58882;52.170;5.386;2022-10-16T13:16:14;9.55;;;1.30;;
70806;SDS011;58882;52.170;5.386;2022-10-16T13:21:51;8.50;;;1.42;;
70806;SDS011;58882;52.170;5.386;2022-10-16T13:30:26;5.63;;;1.00;;
70806;SDS011;58882;52.170;5.386;2022-10-16T13:35:28;7.95;;;1.45;;
70806;SDS011;58882;52.170;5.386;2022-10-16T13:38:11;5.95;;;1.45;;
70806;SDS011;58882;52.170;5.386;2022-10-16T13:41:06;7.20;;;1.10;;
70806;SDS011;58882;52.170;5.386;2022-10-16T13:43:48;7.35;;;1.20;;
70806;SDS011;58882;52.170;5.386;2022-10-16T13:46:18;6.25;;;1.15;;
70806;SDS011;58882;52.170;5.386;2022-10-16T13:49:00;3.95;;;1.10;;
70806;SDS011;58882;52.170;5.386;2022-10-16T13:51:29;8.50;;;1.25;;
70806;SDS011;58882;52.170;5.386;2022-10-16T13:53:56;7.45;;;1.13;;
70806;SDS011;58882;52.170;5.386;2022-10-16T13:56:31;6.70;;;1.33;;
70806;SDS011;58882;52.170;5.386;2022-10-16T14:01:30;5.10;;;1.27;;
70806;SDS011;58882;52.170;5.386;2022-10-16T14:04:07;7.03;;;1.10;;
70806;SDS011;58882;52.170;5.386;2022-10-16T14:06:36;4.53;;;1.23;;
70806;SDS011;58882;52.170;5.386;2022-10-16T14:11:48;8.07;;;1.48;;
70806;SDS011;58882;52.170;5.386;2022-10-16T14:14:19;6.57;;;1.20;;
70806;SDS011;58882;52.170;5.386;2022-10-16T14:16:46;5.82;;;1.17;;
70806;SDS011;58882;52.170;5.386;2022-10-16T14:19:22;7.68;;;1.33;;
70806;SDS011;58882;52.170;5.386;2022-10-16T14:21:53;7.25;;;1.20;;
70806;SDS011;58882;52.170;5.386;2022-10-16T14:26:56;5.43;;;1.20;;
70806;SDS011;58882;52.170;5.386;2022-10-16T14:29:24;7.85;;;1.50;;
70806;SDS011;58882;52.170;5.386;2022-10-16T14:32:00;7.35;;;1.40;;
70806;SDS011;58882;52.170;5.386;2022-10-16T14:34:37;5.63;;;1.30;;
70806;SDS011;58882;52.170;5.386;2022-10-16T14:37:20;7.60;;;1.33;;
70806;SDS011;58882;52.170;5.386;2022-10-16T14:39:54;6.78;;;1.23;;
70806;SDS011;58882;52.170;5.386;2022-10-16T14:42:22;6.75;;;1.20;;
70806;SDS011;58882;52.170;5.386;2022-10-16T14:44:52;7.03;;;1.42;;
70806;SDS011;58882;52.170;5.386;2022-10-16T14:47:21;4.88;;;1.20;;
70806;SDS011;58882;52.170;5.386;2022-10-16T14:49:53;7.50;;;1.35;;
70806;SDS011;58882;52.170;5.386;2022-10-16T14:52:22;7.20;;;1.17;;
70806;SDS011;58882;52.170;5.386;2022-10-16T14:54:48;8.43;;;1.60;;
70806;SDS011;58882;52.170;5.386;2022-10-16T14:57:16;6.70;;;1.20;;
70806;SDS011;58882;52.170;5.386;2022-10-16T14:59:45;6.65;;;1.35;;
70806;SDS011;58882;52.170;5.386;2022-10-16T15:04:53;6.35;;;1.15;;
70806;SDS011;58882;52.170;5.386;2022-10-16T15:07:20;5.25;;;1.17;;
70806;SDS011;58882;52.170;5.386;2022-10-16T15:09:47;7.63;;;1.20;;
70806;SDS011;58882;52.170;5.386;2022-10-16T15:12:15;6.63;;;1.10;;
70806;SDS011;58882;52.170;5.386;2022-10-16T15:14:42;7.60;;;1.40;;
70806;SDS011;58882;52.170;5.386;2022-10-16T15:17:10;4.75;;;1.17;;
70806;SDS011;58882;52.170;5.386;2022-10-16T15:19:37;8.13;;;1.55;;
70806;SDS011;58882;52.170;5.386;2022-10-16T15:22:04;7.63;;;1.45;;
70806;SDS011;58882;52.170;5.386;2022-10-16T15:24:31;7.65;;;1.42;;
70806;SDS011;58882;52.170;5.386;2022-10-16T15:26:58;8.25;;;1.30;;
70806;SDS011;58882;52.170;5.386;2022-10-16T15:29:24;5.80;;;1.25;;
70806;SDS011;58882;52.170;5.386;2022-10-16T15:31:51;10.40;;;1.63;;
70806;SDS011;58882;52.170;5.386;2022-10-16T15:34:18;6.43;;;1.35;;
70806;SDS011;58882;52.170;5.386;2022-10-16T15:36:45;7.00;;;1.40;;
70806;SDS011;58882;52.170;5.386;2022-10-16T15:39:13;8.40;;;1.55;;
70806;SDS011;58882;52.170;5.386;2022-10-16T15:41:42;5.15;;;1.40;;
70806;SDS011;58882;52.170;5.386;2022-10-16T15:44:09;6.07;;;1.40;;
70806;SDS011;58882;52.170;5.386;2022-10-16T15:46:36;9.35;;;1.60;;
70806;SDS011;58882;52.170;5.386;2022-10-16T15:49:03;7.88;;;1.70;;
70806;SDS011;58882;52.170;5.386;2022-10-16T15:51:30;7.75;;;1.67;;
70806;SDS011;58882;52.170;5.386;2022-10-16T15:53:59;8.32;;;1.50;;
70806;SDS011;58882;52.170;5.386;2022-10-16T15:56:28;9.32;;;1.50;;
70806;SDS011;58882;52.170;5.386;2022-10-16T15:58:55;12.07;;;1.92;;
70806;SDS011;58882;52.170;5.386;2022-10-16T16:01:23;9.95;;;1.83;;
70806;SDS011;58882;52.170;5.386;2022-10-16T16:03:54;6.95;;;1.70;;
70806;SDS011;58882;52.170;5.386;2022-10-16T16:06:21;6.88;;;1.67;;
70806;SDS011;58882;52.170;5.386;2022-10-16T16:08:50;7.47;;;1.60;;
70806;SDS011;58882;52.170;5.386;2022-10-16T16:11:18;10.63;;;1.63;;
70806;SDS011;58882;52.170;5.386;2022-10-16T16:13:45;7.80;;;1.75;;
70806;SDS011;58882;52.170;5.386;2022-10-16T16:16:16;6.95;;;1.48;;
70806;SDS011;58882;52.170;5.386;2022-10-16T16:18:44;9.75;;;1.80;;
70806;SDS011;58882;52.170;5.386;2022-10-16T16:21:13;8.25;;;1.98;;
70806;SDS011;58882;52.170;5.386;2022-10-16T16:23:40;6.80;;;1.50;;
70806;SDS011;58882;52.170;5.386;2022-10-16T16:26:09;10.00;;;1.60;;
70806;SDS011;58882;52.170;5.386;2022-10-16T16:28:52;7.90;;;1.65;;
70806;SDS011;58882;52.170;5.386;2022-10-16T16:31:20;8.52;;;1.70;;
70806;SDS011;58882;52.170;5.386;2022-10-16T16:33:50;7.53;;;2.03;;
70806;SDS011;58882;52.170;5.386;2022-10-16T16:36:17;7.55;;;1.60;;
70806;SDS011;58882;52.170;5.386;2022-10-16T16:38:45;9.98;;;1.88;;
70806;SDS011;58882;52.170;5.386;2022-10-16T16:43:39;12.32;;;1.90;;
70806;SDS011;58882;52.170;5.386;2022-10-16T16:46:06;6.75;;;1.80;;
70806;SDS011;58882;52.170;5.386;2022-10-16T16:48:32;7.88;;;1.73;;
70806;SDS011;58882;52.170;5.386;2022-10-16T16:51:05;9.00;;;1.70;;
70806;SDS011;58882;52.170;5.386;2022-10-16T16:53:33;11.48;;;2.00;;
70806;SDS011;58882;52.170;5.386;2022-10-16T16:56:01;12.25;;;2.28;;
70806;SDS011;58882;52.170;5.386;2022-10-16T16:58:30;8.85;;;1.90;;
70806;SDS011;58882;52.170;5.386;2022-10-16T17:00:58;8.10;;;1.80;;
70806;SDS011;58882;52.170;5.386;2022-10-16T17:03:45;7.15;;;1.88;;
70806;SDS011;58882;52.170;5.386;2022-10-16T17:06:13;9.63;;;2.03;;
70806;SDS011;58882;52.170;5.386;2022-10-16T17:08:40;8.50;;;1.80;;
70806;SDS011;58882;52.170;5.386;2022-10-16T17:11:18;6.55;;;1.92;;
70806;SDS011;58882;52.170;5.386;2022-10-16T17:13:48;7.90;;;1.90;;